Cooper City, Florida
Current Conditions -  °F | °C
As of 3:53 AM on Monday 24 Nov 2014 (Local Time) from KHWO Reporting Station
Overcast Overcast  
Wind Chill: 78°   Ceiling: 1900
Heat Index: 81°   Visibility: 10mi
Dew Point: 75°   Wind: 6mph
Humidity: 90%   Direction: 170°S
Pressure: 29.95"   Gusts: NA
Location:  26.026°N, 80.2963°W
Report Text: KHWO 240853Z AUTO 17005KT 10SM OVC019 26/24 A2995 RMK AO2 SLP142 60000 T02560239 58002
Loading
Personal Weather Stations






























Interactive Weather Map New forecast layout! Learn more

10-Day Weather Forecast

Advertisements
Track Severe Weather on mobile